Terminal Aerodrome Forecast
Issued by NWS

Home | Current Version | Previous Version | Text Only | Print | Product List | Glossary On
Versions: 1 2 3 4 5 6 7 8 9 10 11 12 13
072
FTUS45 KRIW 191126
TAFWRL
TAF
KWRL 191126Z 1912/2012 16009KT P6SM SCT100
     FM192200 17010KT P6SM SCT080 BKN100
     FM200200 VRB05KT P6SM SCT100=

USA.gov is the U.S. government's official web portal to all federal, state and local government web resources and services.